Terminal Aerodrome Forecast
Issued by NWS

Home | Current Version | Previous Version | Graphics & Text | Print | Product List | Glossary On
Versions: 1 2 3 4 5 6 7 8 9 10 11 12 13 14 15 16 17 18 19 20 21 22 23 24
000
FTUS43 KBIS 251733
TAFJMS
TAF
KJMS 251733Z 2518/2618 30011KT P6SM VCSH OVC015
     FM252200 31007KT P6SM BKN030
     FM260200 17005KT P6SM OVC015
     FM261000 34017G26KT P6SM BKN010
     FM261400 32010KT P6SM SCT050=

USA.gov is the U.S. government's official web portal to all federal, state and local government web resources and services.